West Mecca, Ohio
Current Conditions -  °F | °C
As of 3:51 PM on Tuesday 21 Oct 2014 (Local Time) from KYNG Reporting Station
Light Rain Light Rain  
Wind Chill: 43°   Ceiling: 600
Heat Index: 47°   Visibility: 5mi
Dew Point: 45°   Wind: 9mph
Humidity: 93%   Direction: 310°NW
Pressure: 29.94"   Gusts: NA
Location:  41.3436°N, 80.7192°W
Report Text: KYNG 211951Z 31008KT 5SM -RA BR BKN006 OVC018 08/07 A2994 RMK AO2 SLP141 VIS NW 2 P0000 T00830072
Loading
Personal Weather Stations






























Interactive Weather Map
Tropical Storm Tracking
New forecast layout! Learn more

10-Day Weather Forecast

Advertisements
Track Severe Weather on mobile